Time;durP1;ratioP1;P1;durP2;ratioP2;P2;SDS_P1;SDS_P2;PMS_P1;PMS_P2;Temp;Humidity;BMP_temperature;BMP_pressure;BME280_temperature;BME280_humidity;BME280_pressure;Samples;Min_cycle;Max_cycle;Signal;HPM_P1;HPM_P2
2022/07/18 00:00:21;;;;;;;;;;;;;;;21.13;33.07;101227.00;5387002;32;35263;-69
2022/07/18 00:03:23;;;;;;;;;;;;;;;21.19;33.42;101233.72;5410626;32;36263;-70
2022/07/18 00:06:25;;;;;;;;;;;;;;;20.53;34.65;101232.91;5416296;32;34844;-71
2022/07/18 00:09:27;;;;;;;;;;;;;;;20.38;34.88;101228.59;5399630;32;34536;-75
2022/07/18 00:12:36;;;;;;;;;;;;;;;20.59;34.68;101237.84;5414913;32;44644;-75
2022/07/18 00:15:38;;;;;;;;;;;;;;;20.80;34.34;101235.53;5419407;32;35383;-76
2022/07/18 00:18:40;;;;;;;;;;;;;;;20.91;34.20;101238.31;5408829;32;34764;-75
2022/07/18 00:21:42;;;;;;;;;;;;;;;20.94;34.14;101247.97;5431626;32;35160;-73
2022/07/18 00:24:44;;;;;;;;;;;;;;;20.82;34.40;101255.84;5419821;32;35319;-75
2022/07/18 00:27:46;;;;;;;;;;;;;;;20.38;35.26;101253.47;5433334;32;35118;-69
2022/07/18 00:30:48;;;;;;;;;;;;;;;20.65;34.38;101250.78;5397707;32;36231;-68
2022/07/18 00:33:50;;;;;;;;;;;;;;;20.39;35.02;101252.50;5388451;32;34670;-75
2022/07/18 00:36:52;;;;;;;;;;;;;;;21.25;33.43;101252.88;5437424;32;35369;-76
2022/07/18 00:39:54;;;;;;;;;;;;;;;21.75;32.75;101250.25;5421571;32;34901;-69
2022/07/18 00:42:56;;;;;;;;;;;;;;;21.51;32.91;101247.53;5400739;32;34825;-70
2022/07/18 00:45:58;;;;;;;;;;;;;;;20.20;35.13;101252.84;5426569;32;34591;-70
2022/07/18 00:49:00;;;;;;;;;;;;;;;21.40;33.15;101245.62;5422973;32;35564;-69
2022/07/18 00:52:02;;;;;;;;;;;;;;;21.01;33.77;101244.75;5423328;32;34286;-75
2022/07/18 00:55:04;;;;;;;;;;;;;;;20.30;35.31;101245.12;5406868;32;34846;-69
2022/07/18 00:58:07;;;;;;;;;;;;;;;19.96;35.70;101252.62;5422470;32;44462;-68
2022/07/18 01:04:30;;;;;;;;;;;;;;;20.99;33.76;101249.31;5435808;32;34785;-76
2022/07/18 01:07:33;;;;;;;;;;;;;;;20.08;35.49;101255.47;5418370;32;34701;-68
2022/07/18 01:10:35;;;;;;;;;;;;;;;20.49;34.68;101256.31;5401269;32;35684;-77
2022/07/18 01:13:37;;;;;;;;;;;;;;;19.66;36.54;101259.94;5406653;32;45114;-76
2022/07/18 01:16:39;;;;;;;;;;;;;;;20.07;36.33;101256.44;5414557;32;34715;-69
2022/07/18 01:19:42;;;;;;;;;;;;;;;19.81;36.94;101255.44;5414774;32;35333;-74
2022/07/18 01:22:44;;;;;;;;;;;;;;;20.06;36.43;101254.72;5410127;32;33802;-70
2022/07/18 01:25:46;;;;;;;;;;;;;;;19.93;36.75;101255.50;5432354;32;35274;-68
2022/07/18 01:28:48;;;;;;;;;;;;;;;19.79;36.61;101246.69;5408069;32;34248;-68
2022/07/18 01:31:50;;;;;;;;;;;;;;;20.06;36.18;101255.59;5418102;32;34933;-73
2022/07/18 01:34:51;;;;;;;;;;;;;;;20.45;35.58;101251.28;5427684;32;37497;-70
2022/07/18 01:37:55;;;;;;;;;;;;;;;20.79;34.25;101249.84;5410394;32;38096;-76
2022/07/18 01:40:57;;;;;;;;;;;;;;;21.33;33.01;101252.38;5432808;32;35295;-76
2022/07/18 01:43:59;;;;;;;;;;;;;;;19.63;35.99;101262.78;5397410;32;34881;-70
2022/07/18 01:47:02;;;;;;;;;;;;;;;20.48;34.63;101259.06;5428058;32;34654;-68
2022/07/18 01:50:04;;;;;;;;;;;;;;;20.84;33.46;101258.41;5409497;32;34554;-75
2022/07/18 01:53:06;;;;;;;;;;;;;;;20.55;33.96;101253.25;5401361;32;44587;-75
2022/07/18 01:56:11;;;;;;;;;;;;;;;20.39;33.95;101263.19;5436237;32;34751;-76
2022/07/18 01:59:12;;;;;;;;;;;;;;;20.06;34.58;101262.72;5382682;32;35015;-74
2022/07/18 02:02:14;;;;;;;;;;;;;;;20.04;34.37;101259.31;5408597;32;36073;-70
2022/07/18 02:05:17;;;;;;;;;;;;;;;19.63;35.08;101257.47;5388480;32;35202;-76
2022/07/18 02:08:19;;;;;;;;;;;;;;;19.76;34.89;101261.06;5417122;32;34675;-69
2022/07/18 02:11:21;;;;;;;;;;;;;;;20.89;32.79;101252.75;5414749;32;34885;-76
2022/07/18 02:14:23;;;;;;;;;;;;;;;21.09;32.34;101253.09;5409475;32;34731;-69
2022/07/18 02:17:25;;;;;;;;;;;;;;;20.33;33.72;101265.41;5421323;32;35655;-70
2022/07/18 02:20:27;;;;;;;;;;;;;;;19.90;34.26;101266.41;5417436;32;34590;-70
2022/07/18 02:23:29;;;;;;;;;;;;;;;20.76;32.91;101266.94;5430664;32;35182;-68
2022/07/18 02:26:31;;;;;;;;;;;;;;;20.03;33.71;101269.12;5402329;32;36129;-68
2022/07/18 02:29:33;;;;;;;;;;;;;;;19.99;34.13;101264.94;5436811;32;34689;-68
2022/07/18 02:32:37;;;;;;;;;;;;;;;19.83;34.23;101270.38;5414958;32;36303;-75
2022/07/18 02:35:39;;;;;;;;;;;;;;;20.13;33.80;101267.56;5411439;32;45366;-69
2022/07/18 02:38:41;;;;;;;;;;;;;;;19.72;34.61;101265.75;5429731;32;34580;-68
2022/07/18 02:41:43;;;;;;;;;;;;;;;19.80;34.39;101262.59;5423766;32;34875;-69
2022/07/18 02:44:45;;;;;;;;;;;;;;;20.22;33.75;101277.66;5433143;32;34807;-69
2022/07/18 02:47:47;;;;;;;;;;;;;;;20.08;34.00;101274.16;5383579;32;34826;-68
2022/07/18 02:50:49;;;;;;;;;;;;;;;20.33;33.62;101276.09;5441576;32;35232;-75
2022/07/18 02:53:51;;;;;;;;;;;;;;;20.21;33.88;101272.41;5422317;32;35450;-75
2022/07/18 02:56:53;;;;;;;;;;;;;;;20.19;33.86;101271.66;5418761;32;34717;-68
2022/07/18 02:59:55;;;;;;;;;;;;;;;20.79;32.85;101273.87;5410769;32;34350;-75
2022/07/18 03:02:57;;;;;;;;;;;;;;;20.11;34.10;101265.97;5416036;32;34166;-72
2022/07/18 03:05:59;;;;;;;;;;;;;;;20.96;32.45;101270.94;5425018;32;34779;-68
2022/07/18 03:09:02;;;;;;;;;;;;;;;19.81;35.16;101282.97;5415444;32;35945;-77
2022/07/18 03:12:04;;;;;;;;;;;;;;;19.50;35.15;101262.69;5432008;32;35812;-68
2022/07/18 03:15:06;;;;;;;;;;;;;;;19.49;35.21;101282.28;5423516;32;48252;-68
2022/07/18 03:18:08;;;;;;;;;;;;;;;19.57;35.32;101281.81;5419974;32;35766;-68
2022/07/18 03:21:10;;;;;;;;;;;;;;;20.38;33.95;101279.31;5415176;32;34229;-67
2022/07/18 03:24:13;;;;;;;;;;;;;;;19.96;34.77;101292.66;5408855;32;34652;-68
2022/07/18 03:27:15;;;;;;;;;;;;;;;19.13;36.37;101296.94;5409219;32;34395;-74
2022/07/18 03:30:17;;;;;;;;;;;;;;;19.41;36.09;101296.09;5415778;32;35046;-68
2022/07/18 03:33:19;;;;;;;;;;;;;;;19.46;35.92;101288.69;5410894;32;35384;-68
2022/07/18 03:36:21;;;;;;;;;;;;;;;19.36;36.18;101271.53;5419868;32;35389;-73
2022/07/18 03:39:23;;;;;;;;;;;;;;;19.54;36.18;101279.34;5414263;32;35397;-68
2022/07/18 03:42:25;;;;;;;;;;;;;;;18.97;37.58;101293.47;5435218;32;34638;-72
2022/07/18 03:45:27;;;;;;;;;;;;;;;19.61;36.48;101288.72;5423044;32;34829;-68
2022/07/18 03:48:29;;;;;;;;;;;;;;;19.99;36.04;101291.63;5433971;32;34996;-75
2022/07/18 03:51:31;;;;;;;;;;;;;;;18.74;38.67;101302.84;5401836;32;34191;-75
2022/07/18 03:54:33;;;;;;;;;;;;;;;19.58;37.32;101288.88;5411572;32;34856;-75
2022/07/18 03:57:35;;;;;;;;;;;;;;;19.59;37.11;101286.16;5420568;32;35589;-68
2022/07/18 04:00:36;;;;;;;;;;;;;;;20.19;36.06;101287.66;5400209;32;46245;-68
2022/07/18 04:03:38;;;;;;;;;;;;;;;19.93;36.60;101303.53;5408400;32;35180;-75
2022/07/18 04:06:40;;;;;;;;;;;;;;;19.24;38.19;101306.94;5399687;32;35593;-74
2022/07/18 04:09:42;;;;;;;;;;;;;;;19.94;36.83;101291.91;5432196;32;35240;-75
2022/07/18 04:12:47;;;;;;;;;;;;;;;19.53;37.59;101314.97;5410513;32;34752;-68
2022/07/18 04:15:49;;;;;;;;;;;;;;;19.38;37.96;101308.75;5434209;32;34914;-75
2022/07/18 04:18:52;;;;;;;;;;;;;;;20.09;36.65;101303.41;5420435;32;36313;-74
2022/07/18 04:21:54;;;;;;;;;;;;;;;19.90;37.18;101303.75;5408707;32;34722;-68
2022/07/18 04:24:55;;;;;;;;;;;;;;;19.53;38.12;101309.62;5435695;32;35610;-69
2022/07/18 04:27:57;;;;;;;;;;;;;;;20.63;35.93;101308.81;5410452;32;34447;-75
2022/07/18 04:30:59;;;;;;;;;;;;;;;20.63;35.46;101307.94;5435571;32;35570;-75
2022/07/18 04:34:01;;;;;;;;;;;;;;;20.32;36.62;101312.59;5407859;32;34693;-73
2022/07/18 04:37:03;;;;;;;;;;;;;;;21.32;35.03;101321.03;5424306;32;34855;-75
2022/07/18 04:40:07;;;;;;;;;;;;;;;21.33;34.82;101305.84;5422683;32;45577;-68
2022/07/18 04:43:09;;;;;;;;;;;;;;;22.07;33.77;101304.13;5404912;32;34765;-68
2022/07/18 04:46:10;;;;;;;;;;;;;;;20.72;36.21;101320.69;5441931;32;34531;-75
2022/07/18 04:49:12;;;;;;;;;;;;;;;22.12;33.87;101310.91;5409978;32;34304;-76
2022/07/18 04:52:14;;;;;;;;;;;;;;;21.87;34.62;101308.25;5435552;32;36411;-75
2022/07/18 04:55:17;;;;;;;;;;;;;;;23.14;32.34;101313.09;5394238;32;35616;-76
2022/07/18 04:58:19;;;;;;;;;;;;;;;22.75;33.08;101316.09;5407771;32;34695;-70
2022/07/18 05:01:22;;;;;;;;;;;;;;;23.62;31.16;101294.13;5413771;32;37750;-74
2022/07/18 05:04:24;;;;;;;;;;;;;;;22.85;33.05;101319.78;5399203;32;34995;-67
2022/07/18 05:07:26;;;;;;;;;;;;;;;23.50;31.63;101308.47;5422857;32;35451;-75
2022/07/18 05:10:28;;;;;;;;;;;;;;;22.25;33.79;101310.84;5397188;32;34983;-76
2022/07/18 05:13:30;;;;;;;;;;;;;;;22.84;32.71;101310.88;5410085;32;34854;-69
2022/07/18 05:16:32;;;;;;;;;;;;;;;23.74;31.29;101300.34;5390636;32;34787;-76
2022/07/18 05:19:34;;;;;;;;;;;;;;;23.50;31.72;101303.97;5395026;32;35579;-76
2022/07/18 05:22:36;;;;;;;;;;;;;;;24.38;30.24;101302.34;5412863;32;46073;-75
2022/07/18 05:25:38;;;;;;;;;;;;;;;24.78;29.40;101306.09;5425831;32;34172;-75
2022/07/18 05:28:40;;;;;;;;;;;;;;;25.77;27.89;101293.16;5430986;32;34693;-70
2022/07/18 05:31:42;;;;;;;;;;;;;;;24.78;29.13;101307.94;5402849;32;35379;-70
2022/07/18 05:34:44;;;;;;;;;;;;;;;25.44;28.04;101304.97;5414216;32;34993;-69
2022/07/18 05:37:46;;;;;;;;;;;;;;;25.07;28.64;101303.66;5414280;32;34639;-76
2022/07/18 05:40:48;;;;;;;;;;;;;;;25.29;27.82;101313.41;5405912;32;34741;-69
2022/07/18 05:43:50;;;;;;;;;;;;;;;24.77;28.71;101312.44;5424535;32;35538;-74
2022/07/18 05:46:52;;;;;;;;;;;;;;;25.93;26.93;101306.94;5410597;32;35456;-72
2022/07/18 05:49:54;;;;;;;;;;;;;;;25.81;26.58;101305.31;5420527;32;36765;-71
2022/07/18 05:52:56;;;;;;;;;;;;;;;24.83;28.53;101317.31;5414991;32;34843;-74
2022/07/18 05:55:58;;;;;;;;;;;;;;;25.84;26.93;101305.06;5426348;32;35242;-74
2022/07/18 05:59:00;;;;;;;;;;;;;;;25.09;27.58;101307.06;5398170;32;35745;-66
2022/07/18 06:02:02;;;;;;;;;;;;;;;25.28;27.47;101306.31;5399853;32;34319;-68
2022/07/18 06:05:04;;;;;;;;;;;;;;;27.39;24.78;101295.22;5413657;32;35440;-66
2022/07/18 06:08:25;;;;;;;;;;;;;;;26.68;25.51;101292.03;5410505;32;35813;-66
2022/07/18 06:11:27;;;;;;;;;;;;;;;27.43;24.31;101299.28;5432241;32;36006;-72
2022/07/18 06:14:30;;;;;;;;;;;;;;;26.35;25.81;101290.59;5411132;32;34289;-72
2022/07/18 06:17:32;;;;;;;;;;;;;;;26.53;25.78;101293.44;5421887;32;35356;-75
2022/07/18 06:20:34;;;;;;;;;;;;;;;27.77;24.31;101304.19;5409633;32;34929;-66
2022/07/18 06:23:36;;;;;;;;;;;;;;;28.44;23.39;101296.69;5408120;32;44432;-66
2022/07/18 06:26:38;;;;;;;;;;;;;;;27.79;24.63;101289.53;5406167;32;36502;-66
2022/07/18 06:29:40;;;;;;;;;;;;;;;28.35;23.82;101295.78;5398979;32;35697;-75
2022/07/18 06:32:42;;;;;;;;;;;;;;;27.60;25.01;101310.34;5425456;32;35564;-66
2022/07/18 06:35:46;;;;;;;;;;;;;;;28.70;23.51;101300.31;5408871;32;34211;-74
2022/07/18 06:38:48;;;;;;;;;;;;;;;25.70;26.58;101308.97;5426757;32;34643;-66
2022/07/18 06:41:50;;;;;;;;;;;;;;;27.88;23.92;101298.56;5418849;32;35364;-75
2022/07/18 06:44:51;;;;;;;;;;;;;;;26.89;24.74;101300.81;5418715;32;34176;-67
2022/07/18 06:47:53;;;;;;;;;;;;;;;28.58;23.18;101294.28;5432248;32;34623;-67
2022/07/18 06:50:55;;;;;;;;;;;;;;;30.06;21.02;101287.97;5412704;32;35310;-65
2022/07/18 06:53:57;;;;;;;;;;;;;;;27.91;23.85;101281.22;5434690;32;35875;-73
2022/07/18 06:56:59;;;;;;;;;;;;;;;28.75;22.81;101280.91;5417727;32;34867;-65
2022/07/18 07:00:02;;;;;;;;;;;;;;;27.56;24.31;101276.53;5408530;32;35850;-73
2022/07/18 07:03:04;;;;;;;;;;;;;;;29.54;22.03;101272.69;5416181;32;34650;-66
2022/07/18 07:06:06;;;;;;;;;;;;;;;30.57;20.15;101270.63;5422119;32;44629;-68
2022/07/18 07:09:08;;;;;;;;;;;;;;;29.27;21.77;101271.00;5427518;32;35028;-67
2022/07/18 07:12:10;;;;;;;;;;;;;;;30.43;20.48;101252.31;5417190;32;35994;-74
2022/07/18 07:15:12;;;;;;;;;;;;;;;30.31;19.61;101259.06;5433513;32;34236;-66
2022/07/18 07:18:14;;;;;;;;;;;;;;;29.10;20.48;101261.91;5416069;32;34290;-74
2022/07/18 07:21:16;;;;;;;;;;;;;;;31.26;18.12;101258.41;5429589;32;35209;-74
2022/07/18 07:24:21;;;;;;;;;;;;;;;30.95;18.46;101249.25;5423006;32;35903;-73
2022/07/18 07:27:23;;;;;;;;;;;;;;;30.80;18.38;101259.12;5388675;32;1006348;-75
2022/07/18 07:30:25;;;;;;;;;;;;;;;29.81;19.70;101252.66;5432128;32;34539;-67
2022/07/18 07:33:27;;;;;;;;;;;;;;;30.43;19.13;101249.59;5420327;32;35503;-65
2022/07/18 07:36:31;;;;;;;;;;;;;;;30.00;19.31;101243.37;5432523;32;35626;-68
2022/07/18 07:39:33;;;;;;;;;;;;;;;33.86;15.23;101240.19;5409087;32;34950;-74
2022/07/18 07:42:36;;;;;;;;;;;;;;;33.28;15.56;101242.75;5428358;32;43812;-73
2022/07/18 07:45:38;;;;;;;;;;;;;;;32.53;16.36;101238.22;5403897;32;36282;-73
2022/07/18 07:48:41;;;;;;;;;;;;;;;32.64;16.22;101238.78;5418047;32;34370;-74
2022/07/18 07:51:42;;;;;;;;;;;;;;;33.77;15.10;101238.62;5418090;32;34361;-76
2022/07/18 07:54:44;;;;;;;;;;;;;;;31.70;17.18;101238.03;5420937;32;35759;-70
2022/07/18 07:57:46;;;;;;;;;;;;;;;32.53;16.26;101234.66;5432213;32;37100;-68
2022/07/18 08:00:48;;;;;;;;;;;;;;;31.92;16.98;101239.12;5400568;32;34357;-74
2022/07/18 08:03:50;;;;;;;;;;;;;;;32.84;16.23;101223.63;5427375;32;34204;-71
2022/07/18 08:06:52;;;;;;;;;;;;;;;32.77;16.09;101228.12;5426427;32;36144;-70
2022/07/18 08:09:54;;;;;;;;;;;;;;;33.50;15.31;101232.00;5419535;32;35340;-72
2022/07/18 08:12:56;;;;;;;;;;;;;;;31.68;17.18;101238.19;5421854;32;34673;-81
2022/07/18 08:15:58;;;;;;;;;;;;;;;31.53;17.61;101242.69;5403280;32;34370;-66
2022/07/18 08:19:00;;;;;;;;;;;;;;;31.40;17.57;101239.69;5431465;32;34251;-68
2022/07/18 08:22:02;;;;;;;;;;;;;;;32.66;16.46;101224.00;5421304;32;35432;-77
2022/07/18 08:25:04;;;;;;;;;;;;;;;31.77;17.12;101234.41;5427002;32;34295;-70
2022/07/18 08:28:07;;;;;;;;;;;;;;;32.91;16.43;101234.66;5424214;32;44435;-71
2022/07/18 08:31:09;;;;;;;;;;;;;;;35.51;13.46;101216.22;5415101;32;34297;-75
2022/07/18 08:34:11;;;;;;;;;;;;;;;34.88;13.65;101229.87;5409245;32;33918;-74
2022/07/18 08:37:13;;;;;;;;;;;;;;;35.07;13.91;101232.97;5416085;32;35741;-75
2022/07/18 08:40:15;;;;;;;;;;;;;;;31.44;17.05;101235.59;5419599;32;35439;-73
2022/07/18 08:43:18;;;;;;;;;;;;;;;33.00;15.58;101233.56;5420067;32;34429;-82
2022/07/18 08:46:24;;;;;;;;;;;;;;;31.83;16.89;101235.62;5417082;32;36631;-68
2022/07/18 08:49:26;;;;;;;;;;;;;;;32.83;15.91;101230.94;5415272;32;35857;-73
2022/07/18 08:52:28;;;;;;;;;;;;;;;33.26;15.77;101239.38;5423580;32;34216;-69
2022/07/18 08:55:50;;;;;;;;;;;;;;;32.20;16.71;101229.44;5432673;32;34743;-69
2022/07/18 08:58:52;;;;;;;;;;;;;;;31.72;16.73;101220.50;5390832;32;34226;-69
2022/07/18 09:01:54;;;;;;;;;;;;;;;32.54;16.26;101226.31;5410202;32;34330;-71
2022/07/18 09:04:57;;;;;;;;;;;;;;;33.99;15.24;101223.16;5405975;32;34336;-70
2022/07/18 09:08:21;;;;;;;;;;;;;;;34.76;14.32;101231.47;5391932;32;34568;-71
2022/07/18 09:11:23;;;;;;;;;;;;;;;32.43;16.37;101239.50;5408211;32;34633;-72
2022/07/18 09:14:45;;;;;;;;;;;;;;;32.08;16.65;101236.31;5412106;32;36402;-70
2022/07/18 09:17:49;;;;;;;;;;;;;;;32.48;16.18;101229.75;5415492;32;35441;-70
2022/07/18 09:20:57;;;;;;;;;;;;;;;32.12;16.78;101234.91;5423990;32;34162;-72
2022/07/18 09:23:59;;;;;;;;;;;;;;;32.49;16.36;101228.72;5423039;32;35403;-75
2022/07/18 09:27:01;;;;;;;;;;;;;;;33.92;14.65;101223.94;5435573;32;35360;-77
2022/07/18 09:30:08;;;;;;;;;;;;;;;34.22;14.64;101229.28;5413248;32;34110;-71
2022/07/18 09:33:15;;;;;;;;;;;;;;;36.22;12.66;101215.81;5425367;32;44706;-76
2022/07/18 09:36:17;;;;;;;;;;;;;;;33.93;14.40;101228.34;5411813;32;34030;-71
2022/07/18 09:39:19;;;;;;;;;;;;;;;35.90;12.65;101218.25;5399226;32;35171;-78
2022/07/18 09:42:22;;;;;;;;;;;;;;;36.51;12.33;101220.91;5429247;32;36695;-69
2022/07/18 09:45:27;;;;;;;;;;;;;;;37.40;11.60;101217.66;5410834;32;34328;-84
2022/07/18 09:48:33;;;;;;;;;;;;;;;34.42;14.02;101224.06;5433194;32;35664;-74
2022/07/18 09:51:36;;;;;;;;;;;;;;;36.25;12.41;101212.66;5383561;32;44727;-75
2022/07/18 09:54:38;;;;;;;;;;;;;;;36.98;11.84;101215.44;5407980;32;35862;-72
2022/07/18 09:57:41;;;;;;;;;;;;;;;35.39;13.13;101221.41;5417167;32;34330;-73
2022/07/18 10:00:43;;;;;;;;;;;;;;;36.32;12.13;101199.81;5394550;32;34554;-73
2022/07/18 10:03:45;;;;;;;;;;;;;;;36.03;12.42;101207.38;5430760;32;35821;-72
2022/07/18 10:06:47;;;;;;;;;;;;;;;36.39;12.25;101202.59;5415995;32;34302;-76
2022/07/18 10:09:49;;;;;;;;;;;;;;;37.53;11.20;101192.09;5412823;32;34127;-71
2022/07/18 10:12:53;;;;;;;;;;;;;;;33.96;14.05;101205.31;5396768;32;34532;-68
2022/07/18 10:15:54;;;;;;;;;;;;;;;37.11;11.34;101194.34;5418825;32;34107;-71
2022/07/18 10:18:56;;;;;;;;;;;;;;;34.77;13.21;101202.28;5405939;32;35615;-72
2022/07/18 10:21:58;;;;;;;;;;;;;;;35.66;12.49;101205.12;5403579;32;34196;-72
2022/07/18 10:25:03;;;;;;;;;;;;;;;35.18;12.86;101202.38;5416979;32;34355;-73
2022/07/18 10:28:07;;;;;;;;;;;;;;;36.68;11.65;101187.62;5411828;32;37154;-73
2022/07/18 10:31:12;;;;;;;;;;;;;;;39.86;9.52;101172.41;5433289;32;34323;-73
2022/07/18 10:34:14;;;;;;;;;;;;;;;40.43;9.06;101174.69;5410723;32;34201;-69
2022/07/18 10:37:16;;;;;;;;;;;;;;;37.43;10.22;101169.78;5426585;32;34324;-72
2022/07/18 10:40:28;;;;;;;;;;;;;;;37.60;10.50;101165.47;5416102;32;34382;-72
2022/07/18 10:43:31;;;;;;;;;;;;;;;39.50;9.08;101165.91;5418113;32;34690;-72
2022/07/18 10:47:02;;;;;;;;;;;;;;;36.19;11.31;101172.44;5427491;32;34190;-73
2022/07/18 10:50:05;;;;;;;;;;;;;;;35.97;11.56;101169.06;5410201;32;35862;-74
2022/07/18 10:53:07;;;;;;;;;;;;;;;37.94;10.18;101153.28;5397147;32;44610;-75
2022/07/18 10:56:12;;;;;;;;;;;;;;;37.33;10.37;101163.88;5422512;32;35017;-72
2022/07/18 10:59:14;;;;;;;;;;;;;;;36.71;10.96;101154.34;5404676;32;35825;-70
2022/07/18 11:02:16;;;;;;;;;;;;;;;40.13;8.65;101141.75;5426894;32;34789;-71
2022/07/18 11:05:24;;;;;;;;;;;;;;;39.79;8.78;101144.97;5411363;32;34102;-70
2022/07/18 11:08:30;;;;;;;;;;;;;;;38.89;9.40;101135.75;5401163;32;34253;-71
2022/07/18 11:11:32;;;;;;;;;;;;;;;38.19;9.39;101135.97;5396322;32;36408;-68
2022/07/18 11:14:54;;;;;;;;;;;;;;;41.27;7.14;101131.13;5418355;32;34075;-70
2022/07/18 11:18:03;;;;;;;;;;;;;;;42.04;6.81;101116.88;5433173;32;34428;-70
2022/07/18 11:21:14;;;;;;;;;;;;;;;40.14;8.12;101119.50;5418728;32;34376;-71
2022/07/18 11:24:16;;;;;;;;;;;;;;;40.89;7.80;101107.72;5434615;32;35293;-71
2022/07/18 11:27:20;;;;;;;;;;;;;;;42.61;6.69;101100.12;5420007;32;35050;-73
2022/07/18 11:30:23;;;;;;;;;;;;;;;40.73;7.75;101103.81;5416584;32;36844;-68
2022/07/18 11:33:26;;;;;;;;;;;;;;;40.89;7.92;101102.22;5412611;32;36346;-69
2022/07/18 11:36:30;;;;;;;;;;;;;;;41.73;7.39;101093.41;5404206;32;34531;-69
2022/07/18 11:39:33;;;;;;;;;;;;;;;42.25;7.15;101087.66;5429329;32;33978;-73
2022/07/18 11:42:38;;;;;;;;;;;;;;;42.18;7.14;101094.22;5419524;32;35719;-70
2022/07/18 11:45:40;;;;;;;;;;;;;;;41.94;7.26;101087.19;5430824;32;43720;-69
2022/07/18 11:48:44;;;;;;;;;;;;;;;41.12;7.79;101080.13;5417387;32;34296;-68
2022/07/18 11:51:46;;;;;;;;;;;;;;;40.55;7.69;101079.16;5432284;32;36678;-70
2022/07/18 11:54:48;;;;;;;;;;;;;;;38.91;8.74;101090.53;5422132;32;34199;-72
2022/07/18 11:57:50;;;;;;;;;;;;;;;37.56;9.68;101062.78;5424578;32;35706;-74
2022/07/18 12:00:57;;;;;;;;;;;;;;;36.84;10.32;101086.69;5397419;32;34170;-68
2022/07/18 12:03:59;;;;;;;;;;;;;;;39.24;8.64;101081.03;5407611;32;35542;-69
2022/07/18 12:07:13;;;;;;;;;;;;;;;37.96;9.78;101058.91;5440009;32;34445;-73
2022/07/18 12:10:16;;;;;;;;;;;;;;;41.48;7.35;101056.03;5420587;32;36513;-72
2022/07/18 12:13:18;;;;;;;;;;;;;;;38.06;9.61;101065.56;5409119;32;34579;-71
2022/07/18 12:16:38;;;;;;;;;;;;;;;38.87;9.07;101052.75;5429433;32;35434;-77
2022/07/18 12:19:41;;;;;;;;;;;;;;;37.93;9.75;101060.19;5424400;32;44507;-68
2022/07/18 12:23:01;;;;;;;;;;;;;;;38.22;9.51;101043.03;5434009;32;35999;-71
2022/07/18 12:26:04;;;;;;;;;;;;;;;36.63;10.34;101064.22;5426999;32;34337;-77
2022/07/18 12:29:07;;;;;;;;;;;;;;;34.44;11.50;101064.53;5408824;32;44620;-68
2022/07/18 12:32:15;;;;;;;;;;;;;;;34.74;10.80;101051.47;5418912;32;35359;-71
2022/07/18 12:35:17;;;;;;;;;;;;;;;34.63;11.20;101053.94;5421460;32;36910;-74
2022/07/18 12:38:19;;;;;;;;;;;;;;;31.94;12.59;101058.50;5435083;32;34024;-74
2022/07/18 12:41:27;;;;;;;;;;;;;;;32.18;12.96;101054.72;5410552;32;34211;-76
2022/07/18 12:44:29;;;;;;;;;;;;;;;31.45;13.29;101049.88;5431665;32;34827;-73
2022/07/18 12:47:31;;;;;;;;;;;;;;;32.56;13.04;101046.53;5413700;32;34621;-74
2022/07/18 12:50:33;;;;;;;;;;;;;;;31.99;13.59;101045.22;5412826;32;34162;-69
2022/07/18 12:53:36;;;;;;;;;;;;;;;32.95;13.29;101040.81;5431766;32;42714;-70
2022/07/18 12:56:39;;;;;;;;;;;;;;;31.81;13.99;101048.25;5409247;32;35170;-73
2022/07/18 12:59:41;;;;;;;;;;;;;;;32.67;13.09;101032.47;5421694;32;34552;-70
2022/07/18 13:02:43;;;;;;;;;;;;;;;30.90;14.47;101037.25;5426708;32;35380;-71
2022/07/18 13:05:45;;;;;;;;;;;;;;;30.96;14.90;101041.97;5438749;32;34185;-73
2022/07/18 13:08:47;;;;;;;;;;;;;;;31.66;14.23;101033.75;5426495;32;34125;-77
2022/07/18 13:11:49;;;;;;;;;;;;;;;31.40;14.47;101033.25;5429788;32;34285;-74
2022/07/18 13:14:51;;;;;;;;;;;;;;;31.32;14.50;101023.31;5427395;32;36355;-73
2022/07/18 13:17:53;;;;;;;;;;;;;;;31.98;14.02;101026.38;5401405;32;34234;-81
2022/07/18 13:20:55;;;;;;;;;;;;;;;32.16;13.74;101016.00;5439137;32;36619;-72
2022/07/18 13:23:57;;;;;;;;;;;;;;;32.24;13.91;101017.78;5423772;32;36263;-73
2022/07/18 13:26:59;;;;;;;;;;;;;;;31.70;14.06;101017.94;5413703;32;34952;-81
2022/07/18 13:30:02;;;;;;;;;;;;;;;30.66;14.65;101005.63;5422224;32;33155;-70
2022/07/18 13:33:04;;;;;;;;;;;;;;;31.30;14.20;101005.47;5422381;32;34099;-67
2022/07/18 13:36:06;;;;;;;;;;;;;;;31.78;14.07;101015.12;5415864;32;45227;-74
2022/07/18 13:39:08;;;;;;;;;;;;;;;31.73;14.35;101012.97;5419665;32;34400;-69
2022/07/18 13:42:10;;;;;;;;;;;;;;;31.74;14.40;101005.66;5422090;32;35371;-68
2022/07/18 13:45:14;;;;;;;;;;;;;;;31.83;14.26;101004.59;5415085;32;35001;-65
2022/07/18 13:48:17;;;;;;;;;;;;;;;32.59;13.82;100992.59;5430059;32;34226;-68
2022/07/18 13:51:19;;;;;;;;;;;;;;;31.87;14.56;100984.16;5426283;32;33431;-69
2022/07/18 13:54:22;;;;;;;;;;;;;;;31.74;14.49;100998.34;5424652;32;34164;-69
2022/07/18 13:57:24;;;;;;;;;;;;;;;31.40;14.80;100990.66;5437392;32;35193;-70
2022/07/18 14:00:26;;;;;;;;;;;;;;;31.51;14.88;100992.09;5364809;32;34718;-69
2022/07/18 14:03:28;;;;;;;;;;;;;;;31.02;15.20;100992.41;5405346;32;34336;-70
2022/07/18 14:06:31;;;;;;;;;;;;;;;31.16;15.14;100988.06;5378654;32;34265;-72
2022/07/18 14:09:33;;;;;;;;;;;;;;;31.55;15.02;100987.97;5419777;32;34211;-69
2022/07/18 14:12:35;;;;;;;;;;;;;;;30.82;15.87;100988.44;5430289;32;34297;-69
2022/07/18 14:15:37;;;;;;;;;;;;;;;31.07;15.60;100984.56;5418753;32;45301;-70
2022/07/18 14:18:39;;;;;;;;;;;;;;;31.06;15.41;100991.03;5429334;32;34332;-72
2022/07/18 14:21:41;;;;;;;;;;;;;;;31.01;15.46;100979.84;5401163;32;34315;-77
2022/07/18 14:24:43;;;;;;;;;;;;;;;31.60;15.17;100980.13;5419025;32;35785;-74
2022/07/18 14:27:45;;;;;;;;;;;;;;;31.59;15.03;100972.16;5417252;32;33051;-76
2022/07/18 14:30:47;;;;;;;;;;;;;;;31.73;15.02;100977.62;5412345;32;34556;-81
2022/07/18 14:33:49;;;;;;;;;;;;;;;31.81;14.84;100958.56;5416893;32;34091;-78
2022/07/18 14:36:51;;;;;;;;;;;;;;;31.08;15.47;100969.97;5420320;32;34031;-73
2022/07/18 14:39:53;;;;;;;;;;;;;;;31.35;15.20;100968.63;5431031;32;34231;-79
2022/07/18 14:42:57;;;;;;;;;;;;;;;31.97;15.03;100959.44;5424222;32;33335;-78
2022/07/18 14:45:59;;;;;;;;;;;;;;;32.07;14.89;100950.00;5437398;32;34411;-79
2022/07/18 14:49:04;;;;;;;;;;;;;;;32.33;14.51;100951.41;5422380;32;34205;-72
2022/07/18 14:52:07;;;;;;;;;;;;;;;31.40;15.50;100946.34;5426946;32;44477;-75
2022/07/18 14:55:09;;;;;;;;;;;;;;;32.25;14.70;100946.03;5422821;32;35035;-71
2022/07/18 14:58:11;;;;;;;;;;;;;;;32.47;14.65;100944.28;5415405;32;35466;-73
2022/07/18 15:01:14;;;;;;;;;;;;;;;33.24;13.74;100946.44;5407262;32;35056;-74
2022/07/18 15:04:16;;;;;;;;;;;;;;;31.40;15.12;100939.03;5411452;32;36067;-69
2022/07/18 15:07:19;;;;;;;;;;;;;;;31.87;15.01;100942.53;5405795;32;35522;-79
2022/07/18 15:10:22;;;;;;;;;;;;;;;31.20;15.37;100937.81;5398869;32;35285;-82
2022/07/18 15:13:24;;;;;;;;;;;;;;;31.11;15.62;100942.47;5420299;32;34376;-69
2022/07/18 15:16:26;;;;;;;;;;;;;;;31.17;15.46;100925.47;5430594;32;34975;-70
2022/07/18 15:19:28;;;;;;;;;;;;;;;31.63;15.12;100928.16;5417093;32;34282;-75
2022/07/18 15:22:30;;;;;;;;;;;;;;;31.10;15.59;100927.19;5428081;32;34245;-75
2022/07/18 15:25:32;;;;;;;;;;;;;;;31.73;14.82;100915.13;5395086;32;34977;-77
2022/07/18 15:28:34;;;;;;;;;;;;;;;31.06;15.56;100912.31;5431170;32;35841;-77
2022/07/18 15:31:36;;;;;;;;;;;;;;;31.58;15.03;100910.72;5405455;32;46242;-77
2022/07/18 15:34:39;;;;;;;;;;;;;;;32.27;14.53;100905.91;5417448;32;34847;-71
2022/07/18 15:37:41;;;;;;;;;;;;;;;31.53;14.98;100897.69;5430217;32;34692;-72
2022/07/18 15:40:43;;;;;;;;;;;;;;;31.49;15.25;100902.66;5399338;32;35894;-74
2022/07/18 15:43:46;;;;;;;;;;;;;;;31.23;15.48;100897.59;5429331;32;32975;-70